createdAt,value
2022-10-07T00:00:12.960Z,1011.26
2022-10-07T00:01:12.999Z,1011.25
2022-10-07T00:02:13.210Z,1011.26
2022-10-07T00:03:13.152Z,1011.27
2022-10-07T00:04:13.400Z,1011.25
2022-10-07T00:05:13.370Z,1011.28
2022-10-07T00:06:13.721Z,1011.26
2022-10-07T00:07:14.035Z,1011.27
2022-10-07T00:08:13.026Z,1011.30
2022-10-07T00:09:13.106Z,1011.29
2022-10-07T00:10:13.152Z,1011.33
2022-10-07T00:11:13.492Z,1011.26
2022-10-07T00:12:13.735Z,1011.25
2022-10-07T00:13:13.777Z,1011.27
2022-10-07T00:14:13.732Z,1011.23
2022-10-07T00:15:13.709Z,1011.22
2022-10-07T00:16:13.682Z,1011.17
2022-10-07T00:17:13.769Z,1011.15
2022-10-07T00:18:13.841Z,1011.16
2022-10-07T00:19:13.806Z,1011.13
2022-10-07T00:20:13.927Z,1011.11
2022-10-07T00:21:13.076Z,1011.12
2022-10-07T00:22:13.297Z,1011.14
2022-10-07T00:23:13.141Z,1011.14
2022-10-07T00:24:13.328Z,1011.10
2022-10-07T00:25:13.282Z,1011.10
2022-10-07T00:26:13.341Z,1011.10
2022-10-07T00:27:13.360Z,1011.08
2022-10-07T00:28:13.342Z,1011.06
2022-10-07T00:29:13.333Z,1011.07
2022-10-07T00:30:13.501Z,1011.06
2022-10-07T00:31:13.811Z,1011.03
2022-10-07T00:32:13.931Z,1011.04
2022-10-07T00:33:13.620Z,1011.02
2022-10-07T00:34:13.787Z,1010.99
2022-10-07T00:35:13.952Z,1011.01
2022-10-07T00:36:16.376Z,1010.99
2022-10-07T00:37:13.343Z,1010.95
2022-10-07T00:38:13.471Z,1010.95
2022-10-07T00:39:13.598Z,1010.94
2022-10-07T00:40:13.917Z,1010.96
2022-10-07T00:41:12.893Z,1010.93
2022-10-07T00:42:14.500Z,1010.95
2022-10-07T00:43:18.781Z,1010.89
2022-10-07T00:44:13.969Z,1010.94
2022-10-07T00:45:13.060Z,1010.89
2022-10-07T00:46:13.380Z,1010.86
2022-10-07T00:47:13.586Z,1010.87
2022-10-07T00:48:13.466Z,1010.87
2022-10-07T00:49:13.426Z,1010.87
2022-10-07T00:50:13.341Z,1010.89
2022-10-07T00:51:13.719Z,1010.88
2022-10-07T00:52:14.021Z,1010.81
2022-10-07T00:53:12.904Z,1010.81
2022-10-07T00:54:13.342Z,1010.79
2022-10-07T00:55:13.704Z,1010.77
2022-10-07T00:56:13.892Z,1010.77
2022-10-07T00:57:13.057Z,1010.74
2022-10-07T00:58:13.212Z,1010.70
2022-10-07T00:59:16.669Z,1010.72
2022-10-07T01:00:13.736Z,1010.70
2022-10-07T01:01:13.989Z,1010.67
2022-10-07T01:02:13.301Z,1010.66
2022-10-07T01:03:13.589Z,1010.67
2022-10-07T01:04:13.822Z,1010.67
2022-10-07T01:05:13.997Z,1010.60
2022-10-07T01:06:12.966Z,1010.62
2022-10-07T01:07:13.248Z,1010.62
2022-10-07T01:08:13.481Z,1010.62
2022-10-07T01:09:13.605Z,1010.64
2022-10-07T01:10:13.606Z,1010.63
2022-10-07T01:11:13.549Z,1010.63
2022-10-07T01:12:13.517Z,1010.63
2022-10-07T01:13:13.728Z,1010.61
2022-10-07T01:14:13.970Z,1010.63
2022-10-07T01:15:13.090Z,1010.62
2022-10-07T01:16:13.271Z,1010.61
2022-10-07T01:17:13.433Z,1010.61
2022-10-07T01:18:13.407Z,1010.63
2022-10-07T01:19:13.308Z,1010.59
2022-10-07T01:20:13.281Z,1010.62
2022-10-07T01:21:13.570Z,1010.58
2022-10-07T01:22:13.465Z,1010.56
2022-10-07T01:23:13.300Z,1010.54
2022-10-07T01:24:13.357Z,1010.54
2022-10-07T01:25:13.485Z,1010.49
2022-10-07T01:26:18.466Z,1010.46
2022-10-07T01:27:18.538Z,1010.45
2022-10-07T01:28:13.577Z,1010.44
2022-10-07T01:29:13.496Z,1010.41
2022-10-07T01:30:13.766Z,1010.38
2022-10-07T01:31:13.781Z,1010.38
2022-10-07T01:32:13.903Z,1010.37
2022-10-07T01:33:14.177Z,1010.33
2022-10-07T01:34:13.261Z,1010.32
2022-10-07T01:35:13.338Z,1010.28
2022-10-07T01:36:13.536Z,1010.30
2022-10-07T01:37:13.647Z,1010.29
2022-10-07T01:38:13.843Z,1010.26
2022-10-07T01:39:13.997Z,1010.28
2022-10-07T01:40:13.078Z,1010.30
2022-10-07T01:41:13.016Z,1010.24
2022-10-07T01:42:13.057Z,1010.25
2022-10-07T01:43:12.988Z,1010.22
2022-10-07T01:44:13.139Z,1010.22
2022-10-07T01:45:13.076Z,1010.21
2022-10-07T01:46:13.326Z,1010.18
2022-10-07T01:47:13.336Z,1010.17
2022-10-07T01:48:13.299Z,1010.17
2022-10-07T01:49:13.305Z,1010.14
2022-10-07T01:50:13.346Z,1010.16
2022-10-07T01:51:13.259Z,1010.12
2022-10-07T01:52:13.122Z,1010.11
2022-10-07T01:53:13.363Z,1010.09
2022-10-07T01:54:13.309Z,1010.05
2022-10-07T01:55:13.376Z,1010.07
2022-10-07T01:56:13.421Z,1010.04
2022-10-07T01:57:13.697Z,1010.06
2022-10-07T01:58:13.687Z,1010.05
2022-10-07T01:59:14.040Z,1010.05
2022-10-07T02:00:13.244Z,1010.06
2022-10-07T02:01:13.214Z,1010.07
2022-10-07T02:02:13.361Z,1010.02
2022-10-07T02:03:13.492Z,1010.02
2022-10-07T02:04:13.394Z,1010.05
2022-10-07T02:05:13.454Z,1010.03
2022-10-07T02:06:13.300Z,1010.03
2022-10-07T02:07:13.383Z,1010.00
2022-10-07T02:08:13.460Z,1009.97
2022-10-07T02:09:13.751Z,1009.98
2022-10-07T02:10:13.715Z,1009.94
2022-10-07T02:11:13.708Z,1009.94
2022-10-07T02:12:13.622Z,1009.94
2022-10-07T02:13:13.571Z,1009.89
2022-10-07T02:14:13.683Z,1009.87
2022-10-07T02:15:13.619Z,1009.85
2022-10-07T02:16:13.801Z,1009.83
2022-10-07T02:17:13.921Z,1009.83
2022-10-07T02:18:13.379Z,1009.77
2022-10-07T02:19:13.364Z,1009.81
2022-10-07T02:20:13.289Z,1009.83
2022-10-07T02:21:13.609Z,1009.81
2022-10-07T02:22:13.815Z,1009.77
2022-10-07T02:23:14.294Z,1009.79
2022-10-07T02:24:13.119Z,1009.78
2022-10-07T02:25:13.432Z,1009.80
2022-10-07T02:26:13.494Z,1009.78
2022-10-07T02:27:13.571Z,1009.75
2022-10-07T02:28:13.877Z,1009.78
2022-10-07T02:29:13.302Z,1009.73
2022-10-07T02:30:13.441Z,1009.70
2022-10-07T02:31:13.753Z,1009.67
2022-10-07T02:32:14.066Z,1009.67
2022-10-07T02:33:13.392Z,1009.67
2022-10-07T02:34:18.900Z,1009.66
2022-10-07T02:35:12.850Z,1009.65
2022-10-07T02:36:13.978Z,1009.65
2022-10-07T02:37:13.034Z,1009.61
2022-10-07T02:38:13.264Z,1009.61
2022-10-07T02:39:13.246Z,1009.57
2022-10-07T02:40:13.494Z,1009.59
2022-10-07T02:41:13.549Z,1009.59
2022-10-07T02:42:13.888Z,1009.54
2022-10-07T02:43:13.783Z,1009.51
2022-10-07T02:44:14.249Z,1009.53
2022-10-07T02:45:13.186Z,1009.51
2022-10-07T02:46:13.631Z,1009.47
2022-10-07T02:47:13.831Z,1009.46
2022-10-07T02:48:13.665Z,1009.48
2022-10-07T02:49:13.545Z,1009.48
2022-10-07T02:50:13.518Z,1009.42
2022-10-07T02:51:16.242Z,1009.45
2022-10-07T02:52:13.581Z,1009.43
2022-10-07T02:53:13.921Z,1009.44
2022-10-07T02:54:12.844Z,1009.44
2022-10-07T02:55:13.801Z,1009.44
2022-10-07T02:56:13.762Z,1009.42
2022-10-07T02:57:13.643Z,1009.42
2022-10-07T02:58:13.686Z,1009.38
2022-10-07T02:59:13.591Z,1009.42
2022-10-07T03:00:13.610Z,1009.40
2022-10-07T03:01:13.789Z,1009.35
2022-10-07T03:02:13.937Z,1009.36
2022-10-07T03:03:13.072Z,1009.34
2022-10-07T03:04:13.044Z,1009.32
2022-10-07T03:05:12.962Z,1009.33
2022-10-07T03:06:12.971Z,1009.31
2022-10-07T03:07:13.145Z,1009.29
2022-10-07T03:08:13.319Z,1009.29
2022-10-07T03:09:15.209Z,1009.26
2022-10-07T03:10:13.089Z,1009.28
2022-10-07T03:11:13.378Z,1009.26
2022-10-07T03:12:13.318Z,1009.27
2022-10-07T03:13:13.226Z,1009.26
2022-10-07T03:14:13.651Z,1009.26
2022-10-07T03:15:13.703Z,1009.24
2022-10-07T03:16:13.890Z,1009.27
2022-10-07T03:17:12.837Z,1009.27
2022-10-07T03:18:13.794Z,1009.25
2022-10-07T03:19:13.937Z,1009.22
2022-10-07T03:20:12.798Z,1009.24
2022-10-07T03:21:13.818Z,1009.18
2022-10-07T03:22:13.807Z,1009.17
2022-10-07T03:23:14.238Z,1009.13
2022-10-07T03:24:13.122Z,1009.15
2022-10-07T03:25:13.056Z,1009.13
2022-10-07T03:26:12.991Z,1009.12
2022-10-07T03:27:12.936Z,1009.14
2022-10-07T03:28:13.291Z,1009.13
2022-10-07T03:29:13.275Z,1009.14
2022-10-07T03:30:13.623Z,1009.12
2022-10-07T03:31:13.706Z,1009.09
2022-10-07T03:32:13.703Z,1009.09
2022-10-07T03:33:13.808Z,1009.11
2022-10-07T03:34:13.809Z,1009.12
2022-10-07T03:35:13.794Z,1009.09
2022-10-07T03:36:13.824Z,1009.12
2022-10-07T03:37:14.127Z,1009.05
2022-10-07T03:38:13.282Z,1009.10
2022-10-07T03:39:13.582Z,1009.09
2022-10-07T03:40:13.782Z,1009.06
2022-10-07T03:41:13.778Z,1009.07
2022-10-07T03:42:13.749Z,1009.06
2022-10-07T03:43:14.248Z,1009.11
2022-10-07T03:44:13.163Z,1009.08
2022-10-07T03:45:13.115Z,1009.08
2022-10-07T03:46:13.157Z,1009.06
2022-10-07T03:47:13.768Z,1009.07
2022-10-07T03:48:13.640Z,1009.08
2022-10-07T03:49:13.661Z,1009.06
2022-10-07T03:50:13.611Z,1009.05
2022-10-07T03:51:13.480Z,1009.08
2022-10-07T03:52:13.666Z,1009.08
2022-10-07T03:53:13.738Z,1009.09
2022-10-07T03:54:13.787Z,1009.10
2022-10-07T03:55:13.959Z,1009.10
2022-10-07T03:56:13.295Z,1009.08
2022-10-07T03:57:13.690Z,1009.09
2022-10-07T03:58:13.724Z,1009.08
2022-10-07T03:59:13.894Z,1009.09
2022-10-07T04:00:12.867Z,1009.09
2022-10-07T04:01:13.772Z,1009.09
2022-10-07T04:02:13.867Z,1009.06
2022-10-07T04:03:12.931Z,1009.06
2022-10-07T04:04:13.152Z,1009.04
2022-10-07T04:05:13.117Z,1009.05
2022-10-07T04:06:13.033Z,1009.02
2022-10-07T04:07:13.127Z,1009.01
2022-10-07T04:08:12.980Z,1009.01
2022-10-07T04:09:13.141Z,1009.00
2022-10-07T04:10:13.527Z,1008.96
2022-10-07T04:11:13.617Z,1009.00
2022-10-07T04:12:13.792Z,1008.99
2022-10-07T04:13:14.067Z,1008.99
2022-10-07T04:14:13.093Z,1008.97
2022-10-07T04:15:13.142Z,1008.98
2022-10-07T04:16:13.389Z,1008.94
2022-10-07T04:17:13.332Z,1008.93
2022-10-07T04:18:13.380Z,1008.95
2022-10-07T04:19:13.614Z,1008.93
2022-10-07T04:20:13.858Z,1008.94
2022-10-07T04:21:13.778Z,1008.92
2022-10-07T04:22:13.893Z,1008.95
2022-10-07T04:23:14.100Z,1008.94
2022-10-07T04:24:13.314Z,1008.95
2022-10-07T04:25:13.487Z,1008.93
2022-10-07T04:26:13.431Z,1008.89
2022-10-07T04:27:23.571Z,1008.89
2022-10-07T04:28:12.885Z,1008.89
2022-10-07T04:29:13.337Z,1008.89
2022-10-07T04:30:13.585Z,1008.82
2022-10-07T04:31:14.076Z,1008.86
2022-10-07T04:32:13.099Z,1008.85
2022-10-07T04:33:13.332Z,1008.84
2022-10-07T04:34:13.281Z,1008.84
2022-10-07T04:35:13.284Z,1008.83
2022-10-07T04:36:13.431Z,1008.84
2022-10-07T04:37:13.677Z,1008.80
2022-10-07T04:38:13.683Z,1008.80
2022-10-07T04:39:13.640Z,1008.78
2022-10-07T04:40:13.563Z,1008.81
2022-10-07T04:41:13.566Z,1008.77
2022-10-07T04:42:13.738Z,1008.80
2022-10-07T04:43:13.920Z,1008.76
2022-10-07T04:44:13.140Z,1008.78
2022-10-07T04:45:13.149Z,1008.82
2022-10-07T04:46:13.711Z,1008.78
2022-10-07T04:47:13.770Z,1008.79
2022-10-07T04:48:14.157Z,1008.78
2022-10-07T04:49:13.239Z,1008.76
2022-10-07T04:50:13.528Z,1008.77
2022-10-07T04:51:13.483Z,1008.76
2022-10-07T04:52:13.797Z,1008.75
2022-10-07T04:53:13.860Z,1008.80
2022-10-07T04:54:13.829Z,1008.78
2022-10-07T04:55:14.014Z,1008.79
2022-10-07T04:56:13.190Z,1008.77
2022-10-07T04:57:13.232Z,1008.76
2022-10-07T04:58:13.157Z,1008.75
2022-10-07T04:59:13.109Z,1008.75
2022-10-07T05:00:13.166Z,1008.69
2022-10-07T05:01:13.185Z,1008.69
2022-10-07T05:02:13.725Z,1008.67
2022-10-07T05:04:13.274Z,1008.65
2022-10-07T05:05:13.282Z,1008.66
2022-10-07T05:06:13.166Z,1008.64
2022-10-07T05:07:13.140Z,1008.65
2022-10-07T05:08:13.330Z,1008.64
2022-10-07T05:09:13.428Z,1008.57
2022-10-07T05:10:13.601Z,1008.57
2022-10-07T05:11:13.778Z,1008.58
2022-10-07T05:12:18.745Z,1008.58
2022-10-07T05:13:13.975Z,1008.59
2022-10-07T05:14:12.834Z,1008.60
2022-10-07T05:15:13.976Z,1008.60
2022-10-07T05:16:13.036Z,1008.59
2022-10-07T05:17:12.988Z,1008.56
2022-10-07T05:18:13.008Z,1008.57
2022-10-07T05:19:13.321Z,1008.55
2022-10-07T05:20:13.258Z,1008.57
2022-10-07T05:21:13.234Z,1008.57
2022-10-07T05:22:13.492Z,1008.57
2022-10-07T05:23:13.377Z,1008.54
2022-10-07T05:24:13.330Z,1008.58
2022-10-07T05:25:13.393Z,1008.54
2022-10-07T05:26:13.294Z,1008.51
2022-10-07T05:27:13.385Z,1008.55
2022-10-07T05:28:13.421Z,1008.55
2022-10-07T05:29:13.370Z,1008.47
2022-10-07T05:30:13.534Z,1008.51
2022-10-07T05:31:13.574Z,1008.48
2022-10-07T05:32:13.953Z,1008.50
2022-10-07T05:33:13.031Z,1008.47
2022-10-07T05:34:13.084Z,1008.42
2022-10-07T05:35:13.025Z,1008.44
2022-10-07T05:36:13.096Z,1008.39
2022-10-07T05:37:13.473Z,1008.45
2022-10-07T05:38:13.637Z,1008.44
2022-10-07T05:39:13.623Z,1008.41
2022-10-07T05:40:13.572Z,1008.41
2022-10-07T05:41:13.786Z,1008.42
2022-10-07T05:42:13.888Z,1008.41
2022-10-07T05:43:13.124Z,1008.43
2022-10-07T05:44:13.177Z,1008.42
2022-10-07T05:45:13.251Z,1008.39
2022-10-07T05:46:13.435Z,1008.38
2022-10-07T05:47:13.817Z,1008.37
2022-10-07T05:48:14.143Z,1008.39
2022-10-07T05:49:13.121Z,1008.36
2022-10-07T05:50:13.245Z,1008.35
2022-10-07T05:51:13.245Z,1008.35
2022-10-07T05:52:13.317Z,1008.31
2022-10-07T05:53:13.413Z,1008.29
2022-10-07T05:54:18.534Z,1008.29
2022-10-07T05:55:13.584Z,1008.30
2022-10-07T05:56:13.538Z,1008.30
2022-10-07T05:57:13.815Z,1008.28
2022-10-07T05:58:14.193Z,1008.29
2022-10-07T05:59:13.741Z,1008.26
2022-10-07T06:00:13.888Z,1008.26
2022-10-07T06:01:14.421Z,1008.24
2022-10-07T06:02:13.721Z,1008.24
2022-10-07T06:03:13.831Z,1008.24
2022-10-07T06:04:13.863Z,1008.23
2022-10-07T06:05:13.978Z,1008.20
2022-10-07T06:06:12.920Z,1008.23
2022-10-07T06:07:14.936Z,1008.20
2022-10-07T06:08:13.364Z,1008.23
2022-10-07T06:09:13.662Z,1008.19
2022-10-07T06:10:13.686Z,1008.19
2022-10-07T06:11:13.825Z,1008.18
2022-10-07T06:12:13.768Z,1008.14
2022-10-07T06:13:14.085Z,1008.18
2022-10-07T06:14:12.974Z,1008.16
2022-10-07T06:15:13.034Z,1008.15
2022-10-07T06:16:13.112Z,1008.17
2022-10-07T06:17:13.221Z,1008.15
2022-10-07T06:18:13.454Z,1008.17
2022-10-07T06:19:13.383Z,1008.16
2022-10-07T06:20:13.513Z,1008.16
2022-10-07T06:21:13.434Z,1008.17
2022-10-07T06:22:13.834Z,1008.14
2022-10-07T06:23:14.979Z,1008.16
2022-10-07T06:24:13.084Z,1008.15
2022-10-07T06:25:13.032Z,1008.15
2022-10-07T06:26:12.972Z,1008.14
2022-10-07T06:27:13.277Z,1008.15
2022-10-07T06:28:13.559Z,1008.16
2022-10-07T06:29:13.624Z,1008.13
2022-10-07T06:30:13.894Z,1008.15
2022-10-07T06:31:14.130Z,1008.14
2022-10-07T06:32:13.197Z,1008.15
2022-10-07T06:33:13.130Z,1008.14
2022-10-07T06:34:13.178Z,1008.13
2022-10-07T06:35:13.180Z,1008.16
2022-10-07T06:36:13.126Z,1008.17
2022-10-07T06:37:13.133Z,1008.19
2022-10-07T06:38:13.142Z,1008.18
2022-10-07T06:39:13.310Z,1008.18
2022-10-07T06:40:13.228Z,1008.17
2022-10-07T06:41:13.483Z,1008.19
2022-10-07T06:42:13.631Z,1008.20
2022-10-07T06:43:13.946Z,1008.20
2022-10-07T06:44:13.074Z,1008.25
2022-10-07T06:45:13.061Z,1008.20
2022-10-07T06:46:13.231Z,1008.19
2022-10-07T06:47:13.553Z,1008.19
2022-10-07T06:48:13.448Z,1008.21
2022-10-07T06:49:13.505Z,1008.17
2022-10-07T06:50:13.431Z,1008.18
2022-10-07T06:51:13.439Z,1008.19
2022-10-07T06:52:13.415Z,1008.19
2022-10-07T06:53:13.317Z,1008.16
2022-10-07T06:54:18.367Z,1008.19
2022-10-07T06:55:13.435Z,1008.18
2022-10-07T06:56:13.354Z,1008.20
2022-10-07T06:57:40.268Z,1008.18
2022-10-07T06:58:13.773Z,1008.17
2022-10-07T06:59:13.935Z,1008.19
2022-10-07T07:00:13.348Z,1008.22
2022-10-07T07:01:14.698Z,1008.18
2022-10-07T07:02:13.758Z,1008.17
2022-10-07T07:03:13.827Z,1008.20
2022-10-07T07:04:13.790Z,1008.17
2022-10-07T07:05:13.957Z,1008.21
2022-10-07T07:06:13.253Z,1008.24
2022-10-07T07:07:13.426Z,1008.27
2022-10-07T07:08:13.380Z,1008.26
2022-10-07T07:09:13.220Z,1008.30
2022-10-07T07:10:14.582Z,1008.31
2022-10-07T07:11:13.593Z,1008.30
2022-10-07T07:12:13.616Z,1008.31
2022-10-07T07:13:13.951Z,1008.32
2022-10-07T07:14:13.125Z,1008.29
2022-10-07T07:15:13.286Z,1008.30
2022-10-07T07:16:13.333Z,1008.33
2022-10-07T07:17:13.309Z,1008.34
2022-10-07T07:18:13.272Z,1008.34
2022-10-07T07:19:13.601Z,1008.34
2022-10-07T07:20:14.043Z,1008.28
2022-10-07T07:21:13.202Z,1008.32
2022-10-07T07:22:13.429Z,1008.31
2022-10-07T07:23:13.418Z,1008.29
2022-10-07T07:24:13.925Z,1008.31
2022-10-07T07:25:13.136Z,1008.35
2022-10-07T07:26:13.690Z,1008.34
2022-10-07T07:27:14.084Z,1008.30
2022-10-07T07:28:13.455Z,1008.31
2022-10-07T07:29:15.750Z,1008.30
2022-10-07T07:30:14.079Z,1008.31
2022-10-07T07:31:13.297Z,1008.29
2022-10-07T07:32:13.421Z,1008.35
2022-10-07T07:33:13.686Z,1008.30
2022-10-07T07:34:14.041Z,1008.28
2022-10-07T07:35:13.115Z,1008.27
2022-10-07T07:36:13.346Z,1008.24
2022-10-07T07:37:13.635Z,1008.20
2022-10-07T07:38:13.805Z,1008.22
2022-10-07T07:39:14.558Z,1008.21
2022-10-07T07:40:13.759Z,1008.20
2022-10-07T07:41:13.977Z,1008.20
2022-10-07T07:42:13.314Z,1008.20
2022-10-07T07:43:13.353Z,1008.17
2022-10-07T07:44:13.298Z,1008.19
2022-10-07T07:45:13.522Z,1008.17
2022-10-07T07:46:13.740Z,1008.15
2022-10-07T07:47:13.732Z,1008.16
2022-10-07T07:48:13.782Z,1008.20
2022-10-07T07:49:13.870Z,1008.15
2022-10-07T07:50:13.868Z,1008.17
2022-10-07T07:51:13.939Z,1008.14
2022-10-07T07:52:12.874Z,1008.12
2022-10-07T07:53:13.809Z,1008.12
2022-10-07T07:54:14.022Z,1008.15
2022-10-07T07:55:13.221Z,1008.13
2022-10-07T07:56:13.225Z,1008.14
2022-10-07T07:57:13.189Z,1008.14
2022-10-07T07:58:13.154Z,1008.14
2022-10-07T07:59:13.578Z,1008.15
2022-10-07T08:00:13.537Z,1008.11
2022-10-07T08:01:13.535Z,1008.12
2022-10-07T08:02:13.631Z,1008.14
2022-10-07T08:04:13.538Z,1008.15
2022-10-07T08:05:13.680Z,1008.12
2022-10-07T08:06:13.745Z,1008.09
2022-10-07T08:07:13.936Z,1008.10
2022-10-07T08:08:13.245Z,1008.11
2022-10-07T08:09:13.595Z,1008.06
2022-10-07T08:10:13.732Z,1008.10
2022-10-07T08:11:13.957Z,1008.11
2022-10-07T08:12:13.383Z,1008.14
2022-10-07T08:13:13.597Z,1008.12
2022-10-07T08:14:15.448Z,1008.13
2022-10-07T08:15:13.338Z,1008.14
2022-10-07T08:16:13.558Z,1008.14
2022-10-07T08:17:13.893Z,1008.17
2022-10-07T08:18:12.750Z,1008.17
2022-10-07T08:19:13.725Z,1008.12
2022-10-07T08:20:13.796Z,1008.12
2022-10-07T08:21:13.653Z,1008.11
2022-10-07T08:22:13.735Z,1008.11
2022-10-07T08:23:13.670Z,1008.14
2022-10-07T08:24:13.547Z,1008.07
2022-10-07T08:25:13.464Z,1008.13
2022-10-07T08:26:13.586Z,1008.09
2022-10-07T08:27:13.652Z,1008.08
2022-10-07T08:28:13.611Z,1008.09
2022-10-07T08:29:13.873Z,1008.10
2022-10-07T08:30:14.136Z,1008.05
2022-10-07T08:31:13.323Z,1008.02
2022-10-07T08:32:13.356Z,1008.09
2022-10-07T08:33:13.192Z,1008.06
2022-10-07T08:34:13.445Z,1008.05
2022-10-07T08:35:13.312Z,1008.04
2022-10-07T08:36:13.620Z,1008.07
2022-10-07T08:37:13.967Z,1008.04
2022-10-07T08:38:14.624Z,1008.02
2022-10-07T08:39:13.654Z,1007.96
2022-10-07T08:40:13.561Z,1008.03
2022-10-07T08:41:13.632Z,1008.00
2022-10-07T08:42:13.866Z,1007.97
2022-10-07T08:43:13.840Z,1008.02
2022-10-07T08:44:16.794Z,1007.99
2022-10-07T08:45:13.164Z,1007.92
2022-10-07T08:46:13.466Z,1007.97
2022-10-07T08:47:13.499Z,1007.96
2022-10-07T08:48:13.745Z,1007.91
2022-10-07T08:49:13.767Z,1007.94
2022-10-07T08:50:18.323Z,1007.91
2022-10-07T08:51:14.203Z,1007.91
2022-10-07T08:52:13.337Z,1007.90
2022-10-07T08:53:13.263Z,1007.87
2022-10-07T08:54:13.314Z,1007.89
2022-10-07T08:55:13.276Z,1007.87
2022-10-07T08:56:13.322Z,1007.91
2022-10-07T08:57:13.232Z,1007.87
2022-10-07T08:58:13.062Z,1007.90
2022-10-07T08:59:13.056Z,1007.81
2022-10-07T09:00:13.203Z,1007.86
2022-10-07T09:01:13.558Z,1007.86
2022-10-07T09:02:13.851Z,1007.85
2022-10-07T09:03:13.288Z,1007.83
2022-10-07T09:04:13.572Z,1007.82
2022-10-07T09:05:13.456Z,1007.83
2022-10-07T09:06:13.653Z,1007.83
2022-10-07T09:07:13.770Z,1007.82
2022-10-07T09:08:14.108Z,1007.76
2022-10-07T09:09:13.100Z,1007.75
2022-10-07T09:10:13.010Z,1007.77
2022-10-07T09:11:18.203Z,1007.78
2022-10-07T09:12:13.126Z,1007.74
2022-10-07T09:13:13.520Z,1007.72
2022-10-07T09:14:13.542Z,1007.69
2022-10-07T09:15:13.461Z,1007.73
2022-10-07T09:16:13.593Z,1007.71
2022-10-07T09:17:13.673Z,1007.74
2022-10-07T09:18:13.703Z,1007.74
2022-10-07T09:19:13.958Z,1007.69
2022-10-07T09:20:13.303Z,1007.70
2022-10-07T09:21:13.217Z,1007.68
2022-10-07T09:22:13.228Z,1007.64
2022-10-07T09:23:13.133Z,1007.69
2022-10-07T09:24:13.062Z,1007.66
2022-10-07T09:25:13.266Z,1007.64
2022-10-07T09:26:13.192Z,1007.62
2022-10-07T09:27:13.120Z,1007.61
2022-10-07T09:28:13.064Z,1007.62
2022-10-07T09:29:13.078Z,1007.61
2022-10-07T09:30:13.145Z,1007.59
2022-10-07T09:31:13.302Z,1007.61
2022-10-07T09:32:13.409Z,1007.62
2022-10-07T09:33:13.296Z,1007.56
2022-10-07T09:34:13.486Z,1007.58
2022-10-07T09:35:13.699Z,1007.55
2022-10-07T09:36:14.131Z,1007.53
2022-10-07T09:37:13.166Z,1007.50
2022-10-07T09:38:13.271Z,1007.54
2022-10-07T09:39:13.701Z,1007.49
2022-10-07T09:40:13.959Z,1007.52
2022-10-07T09:41:13.262Z,1007.46
2022-10-07T09:42:13.471Z,1007.45
2022-10-07T09:43:14.169Z,1007.40
2022-10-07T09:44:13.616Z,1007.37
2022-10-07T09:45:13.771Z,1007.38
2022-10-07T09:46:19.528Z,1007.41
2022-10-07T09:47:13.769Z,1007.40
2022-10-07T09:48:13.977Z,1007.36
2022-10-07T09:49:12.984Z,1007.36
2022-10-07T09:50:13.246Z,1007.37
2022-10-07T09:51:13.332Z,1007.36
2022-10-07T09:52:13.349Z,1007.34
2022-10-07T09:53:13.700Z,1007.40
2022-10-07T09:54:13.955Z,1007.39
2022-10-07T09:55:12.855Z,1007.42
2022-10-07T09:56:14.149Z,1007.37
2022-10-07T09:57:18.184Z,1007.40
2022-10-07T09:58:12.973Z,1007.39
2022-10-07T09:59:13.130Z,1007.47
2022-10-07T10:00:13.352Z,1007.52
2022-10-07T10:01:13.434Z,1007.43
2022-10-07T10:02:13.602Z,1007.44
2022-10-07T10:03:14.318Z,1007.45
2022-10-07T10:04:13.540Z,1007.47
2022-10-07T10:05:13.687Z,1007.44
2022-10-07T10:06:13.850Z,1007.42
2022-10-07T10:07:14.408Z,1007.38
2022-10-07T10:08:13.527Z,1007.42
2022-10-07T10:09:18.094Z,1007.41
2022-10-07T10:10:13.234Z,1007.39
2022-10-07T10:11:13.354Z,1007.39
2022-10-07T10:12:13.402Z,1007.38
2022-10-07T10:13:13.720Z,1007.40
2022-10-07T10:14:13.932Z,1007.35
2022-10-07T10:15:12.817Z,1007.39
2022-10-07T10:16:13.835Z,1007.35
2022-10-07T10:17:13.973Z,1007.34
2022-10-07T10:18:13.097Z,1007.31
2022-10-07T10:19:12.957Z,1007.25
2022-10-07T10:20:12.903Z,1007.26
2022-10-07T10:21:13.413Z,1007.27
2022-10-07T10:22:13.525Z,1007.25
2022-10-07T10:23:13.703Z,1007.22
2022-10-07T10:24:13.564Z,1007.21
2022-10-07T10:25:13.404Z,1007.18
2022-10-07T10:26:13.261Z,1007.21
2022-10-07T10:27:13.239Z,1007.21
2022-10-07T10:28:13.262Z,1007.18
2022-10-07T10:29:13.575Z,1007.13
2022-10-07T10:30:13.575Z,1007.12
2022-10-07T10:31:13.592Z,1007.14
2022-10-07T10:32:14.133Z,1007.12
2022-10-07T10:33:13.059Z,1007.07
2022-10-07T10:34:13.104Z,1007.09
2022-10-07T10:35:13.098Z,1007.06
2022-10-07T10:36:12.929Z,1007.07
2022-10-07T10:37:14.694Z,1007.06
2022-10-07T10:38:13.899Z,1007.04
2022-10-07T10:39:13.049Z,1007.05
2022-10-07T10:40:13.093Z,1007.02
2022-10-07T10:41:13.446Z,1006.98
2022-10-07T10:42:13.387Z,1006.94
2022-10-07T10:43:13.487Z,1006.93
2022-10-07T10:44:13.657Z,1006.95
2022-10-07T10:45:13.643Z,1006.95
2022-10-07T10:46:13.765Z,1006.93
2022-10-07T10:47:13.877Z,1006.78
2022-10-07T10:48:13.125Z,1006.87
2022-10-07T10:49:13.177Z,1006.88
2022-10-07T10:50:13.167Z,1006.83
2022-10-07T10:51:13.161Z,1006.82
2022-10-07T10:52:13.708Z,1006.82
2022-10-07T10:53:13.784Z,1006.79
2022-10-07T10:54:15.242Z,1006.80
2022-10-07T10:55:13.554Z,1006.76
2022-10-07T10:56:14.852Z,1006.76
2022-10-07T10:57:12.764Z,1006.79
2022-10-07T10:58:15.576Z,1006.67
2022-10-07T10:59:15.938Z,1006.70
2022-10-07T11:00:14.534Z,1006.62
2022-10-07T11:01:13.554Z,1006.60
2022-10-07T11:02:15.021Z,1006.63
2022-10-07T11:03:16.078Z,1006.64
2022-10-07T11:04:14.712Z,1006.58
2022-10-07T11:05:15.475Z,1006.63
2022-10-07T11:06:15.718Z,1006.55
2022-10-07T11:07:15.352Z,1006.58
2022-10-07T11:08:13.354Z,1006.55
2022-10-07T11:09:15.024Z,1006.55
2022-10-07T11:10:14.009Z,1006.50
2022-10-07T11:11:14.665Z,1006.55
2022-10-07T11:12:13.716Z,1006.53
2022-10-07T11:13:13.618Z,1006.49
2022-10-07T11:14:15.140Z,1006.42
2022-10-07T11:15:13.051Z,1006.45
2022-10-07T11:16:15.909Z,1006.42
2022-10-07T11:17:12.816Z,1006.40
2022-10-07T11:18:15.480Z,1006.40
2022-10-07T11:19:16.420Z,1006.38
2022-10-07T11:20:13.328Z,1006.29
2022-10-07T11:21:16.016Z,1006.37
2022-10-07T11:22:13.157Z,1006.33
2022-10-07T11:23:13.154Z,1006.34
2022-10-07T11:24:14.251Z,1006.26
2022-10-07T11:25:17.990Z,1006.31
2022-10-07T11:26:14.258Z,1006.27
2022-10-07T11:27:13.409Z,1006.24
2022-10-07T11:28:14.590Z,1006.20
2022-10-07T11:29:17.112Z,1006.21
2022-10-07T11:30:14.263Z,1006.17
2022-10-07T11:31:13.291Z,1006.12
2022-10-07T11:32:13.635Z,1006.17
2022-10-07T11:33:16.576Z,1006.12
2022-10-07T11:34:15.944Z,1006.12
2022-10-07T11:35:15.966Z,1006.12
2022-10-07T11:36:17.115Z,1006.11
2022-10-07T11:37:13.004Z,1006.06
2022-10-07T11:38:13.055Z,1006.10
2022-10-07T11:39:16.972Z,1006.05
2022-10-07T11:40:12.835Z,1006.04
2022-10-07T11:41:15.095Z,1006.01
2022-10-07T11:42:14.082Z,1006.00
2022-10-07T11:43:14.961Z,1005.97
2022-10-07T11:44:16.387Z,1005.93
2022-10-07T11:45:15.913Z,1005.94
2022-10-07T11:46:16.368Z,1005.90
2022-10-07T11:47:16.986Z,1005.94
2022-10-07T11:48:16.419Z,1005.86
2022-10-07T11:49:17.757Z,1005.79
2022-10-07T11:50:14.065Z,1005.83
2022-10-07T11:51:13.068Z,1005.81
2022-10-07T11:52:16.496Z,1005.81
2022-10-07T11:53:19.112Z,1005.77
2022-10-07T11:54:18.718Z,1005.80
2022-10-07T11:55:17.671Z,1005.74
2022-10-07T11:56:16.289Z,1005.72
2022-10-07T11:57:18.544Z,1005.68
2022-10-07T11:58:17.074Z,1005.69
2022-10-07T11:59:14.509Z,1005.67
2022-10-07T12:00:18.992Z,1005.59
2022-10-07T12:01:12.903Z,1005.56
2022-10-07T12:02:15.877Z,1005.57
2022-10-07T12:03:15.925Z,1005.54
2022-10-07T12:04:16.973Z,1005.53
2022-10-07T12:05:17.662Z,1005.50
2022-10-07T12:06:17.253Z,1005.45
2022-10-07T12:07:17.848Z,1005.36